NCAR-RAP Real-Time Weather Data

Output produced by METARs form (08 May 2021  15:32 UTC)
found at http://weather.rap.ucar.edu/surface/
 
KMCI 081453Z 11019KT 10SM FEW140 SCT200 17/09 A2987 RMK AO2 SLP111 T01670094 58013 $
KMCI 081353Z 10017G24KT 10SM FEW120 SCT200 15/09 A2989 RMK AO2 SLP117 T01500094 $
KMCI 081253Z 08011KT 10SM FEW075 SCT120 SCT200 14/09 A2991 RMK AO2 SLP125 CB DSNT SE T01390094 $
KMCI 081153Z 08010KT 10SM SCT080 SCT100 BKN130 13/09 A2991 RMK AO2 RAE18 SLP125 P0005 60008 70008 T01280089 10150 20128 55011 $
KMCI 081053Z 11013KT 10SM -RA BKN090 OVC100 14/09 A2990 RMK AO2 LTG DSNT E PRESFR SLP120 P0003 T01390089 $
KMCI 081025Z 10007KT 5SM RA FEW026 OVC060 15/08 A2995 RMK AO2 P0000 T01500083 $
KMCI 081015Z 10008KT 10SM VCTS -RA OVC060CB 15/08 A2995 RMK AO2 LTG DSNT NE TS VC NE MOV E P0000 T01500083 $
KMCI 080953Z 11010KT 7SM -RA BKN065 OVC080 15/08 A2993 RMK AO2 LTG DSNT W RAB51 SLP130 P0000 T01500078 $
KMCI 080853Z 11007KT 10SM OVC065 15/08 A2994 RMK AO2 SLP134 T01500083 56017 $
KMCI 080753Z 11007KT 10SM OVC070 15/09 A2995 RMK AO2 SLP136 T01500089 $
KMCI 080653Z 11006KT 10SM OVC075 15/09 A2997 RMK AO2 SLP142 T01500089 $
KMCI 080553Z 07004KT 10SM SCT080 BKN090 13/09 A3000 RMK AO2 SLP153 T01330089 10178 20133 402280061 58001 $
KMCI 080453Z 12005KT 10SM OVC070 16/08 A3001 RMK AO2 SLP156 T01610083 $
KMCI 080353Z 14004KT 10SM OVC080 15/09 A3001 RMK AO2 SLP159 T01500089 $
KMCI 080253Z 17003KT 10SM OVC085 14/09 A3000 RMK AO2 SLP155 T01390089 $
KMCI 080153Z 22005KT 10SM BKN070 14/08 A3000 RMK AO2 SLP155 T01440083 $
KMCI 080129Z 22005KT 10SM OVC070 16/08 A3000 RMK AO2 T01560083 $
KMCI 080053Z 22006KT 10SM OVC070 17/08 A3000 RMK AO2 SLP154 T01670078
KMCI 072353Z 22006KT 10SM OVC070 18/07 A3000 RMK AO2 SLP157 60000 T01780072 10228 20178 56015
KMCI 072253Z 21005KT 10SM OVC070 18/08 A3001 RMK AO2 SLP161 T01830078
KMCI 072152Z 21005KT 10SM OVC075 19/07 A3003 RMK AO2 SLP166 T01940067
KMCI 072053Z 20006KT 10SM OVC090 21/06 A3005 RMK AO2 SLP173 60000 T02110061 56026
KMCI 071953Z 21009KT 10SM OVC085 21/06 A3008 RMK AO2 SLP181 T02110061
KMCI 071853Z 30008KT 6SM HZ OVC085 22/05 A3010 RMK AO2 RAB03E12 SLP188 P0000 T02220050
KMCI 071753Z 24010KT 10SM FEW030 SCT075 OVC095 20/04 A3013 RMK AO2 RAB35E44 SLP198 P0000 60000 T02000039 10222 20094
KMCI 071653Z 25011G21KT 8SM BKN090 BKN170 22/06 A3014 RMK AO2 SLP202 T02220056
KMCI 071553Z 22010KT 9SM BKN095 18/06 A3014 RMK AO2 SLP204 T01780056 $
KMCI 071453Z 25010KT 10SM SCT110 SCT180 17/04 A3015 RMK AO2 SLP205 T01720044 50003
KMCI 071353Z 23010KT 10SM FEW110 SCT180 16/04 A3015 RMK AO2 SLP207 T01560039 $
KMCI 071253Z 23007KT 10SM SCT110 SCT180 13/03 A3015 RMK AO2 SLP208 T01280033 $
KMCI 071153Z 23008KT 10SM FEW130 09/02 A3014 RMK AO2 SLP204 T00940022 10106 20061 53002 $
KMCI 071053Z 22006KT 6SM HZ CLR 07/02 A3013 RMK AO2 SLP201 T00720017 $
KMCI 070953Z 23008KT 10SM CLR 08/02 A3013 RMK AO2 SLP202 T00780017 $
KMCI 070853Z 19006KT 10SM CLR 08/02 A3013 RMK AO2 SLP203 T00780017 58013 $
KMCI 070753Z 22006KT 10SM CLR 08/02 A3015 RMK AO2 SLP209 T00830022 $
KMCI 070653Z 23008KT 10SM CLR 09/01 A3017 RMK AO2 SLP214 T00940011 $
KMCI 070553Z 20005KT 10SM CLR 09/01 A3017 RMK AO2 SLP216 T00940011 10178 20083 401890083 58014 $
KMCI 070453Z 21005KT 10SM CLR 11/01 A3019 RMK AO2 SLP221 T01060011 $
KMCI 070353Z 22005KT 10SM CLR 12/00 A3020 RMK AO2 SLP227 T01170000 $
KMCI 070253Z 23003KT 10SM CLR 14/M01 A3022 RMK AO2 SLP231 T01391006 53006 $
KMCI 070153Z 31004KT 10SM CLR 15/M01 A3021 RMK AO2 SLP229 T01501006 $
KMCI 070053Z 33004KT 10SM CLR 16/01 A3020 RMK AO2 SLP224 T01610011 $
KMCI 062353Z 31007KT 10SM CLR 18/01 A3020 RMK AO2 SLP224 T01780011 10189 20150 56014 $
KMCI 062253Z 34008KT 10SM SCT060 18/03 A3021 RMK AO2 SLP227 T01830028 $
KMCI 062153Z VRB06G15KT 10SM FEW060 18/03 A3022 RMK AO2 SLP232 T01780033 $
KMCI 062053Z 36009G23KT 7SM FEW050 18/04 A3024 RMK AO2 SLP236 T01780044 56014 $
KMCI 061953Z 36009G20KT 320V020 10SM FEW032 17/04 A3025 RMK AO2 SLP240 T01720044 $
KMCI 061853Z 35010G18KT 10SM SCT032 16/05 A3027 RMK AO2 SLP248 T01610050 $
KMCI 061753Z 35012G21KT 10SM SCT032 15/05 A3028 RMK AO2 SLP252 T01500050 10156 20100 50004 $
KMCI 061653Z 34010G18KT 8SM BKN030 14/06 A3029 RMK AO2 SLP253 T01390056 $
KMCI 061646Z 33012G24KT 9SM BKN030 13/06 A3029 RMK AO2 T01280056 $
KMCI 061553Z 34014G22KT 8SM BKN024 OVC028 12/06 A3028 RMK AO2 SLP254 T01170056 $